sensor_id;sensor_type;location;lat;lon;timestamp;P1;durP1;ratioP1;P2;durP2;ratioP2
35496;SDS011;21609;49.298;6.844;2024-01-10T00:02:05;3.90;;;3.25;;
35496;SDS011;21609;49.298;6.844;2024-01-10T00:04:31;3.75;;;2.92;;
35496;SDS011;21609;49.298;6.844;2024-01-10T00:06:56;3.60;;;2.80;;
35496;SDS011;21609;49.298;6.844;2024-01-10T00:09:22;3.30;;;2.78;;
35496;SDS011;21609;49.298;6.844;2024-01-10T00:11:47;3.95;;;2.92;;
35496;SDS011;21609;49.298;6.844;2024-01-10T00:14:16;4.07;;;3.50;;
35496;SDS011;21609;49.298;6.844;2024-01-10T00:16:41;3.60;;;2.97;;
35496;SDS011;21609;49.298;6.844;2024-01-10T00:19:07;3.22;;;2.88;;
35496;SDS011;21609;49.298;6.844;2024-01-10T00:21:32;4.80;;;2.97;;
35496;SDS011;21609;49.298;6.844;2024-01-10T00:24:02;4.22;;;3.03;;
35496;SDS011;21609;49.298;6.844;2024-01-10T00:26:31;3.50;;;3.20;;
35496;SDS011;21609;49.298;6.844;2024-01-10T00:28:56;3.30;;;2.95;;
35496;SDS011;21609;49.298;6.844;2024-01-10T00:31:22;3.90;;;2.85;;
35496;SDS011;21609;49.298;6.844;2024-01-10T00:33:47;3.63;;;2.85;;
35496;SDS011;21609;49.298;6.844;2024-01-10T00:36:13;4.32;;;3.15;;
35496;SDS011;21609;49.298;6.844;2024-01-10T00:38:38;3.08;;;2.75;;
35496;SDS011;21609;49.298;6.844;2024-01-10T00:41:04;3.40;;;2.70;;
35496;SDS011;21609;49.298;6.844;2024-01-10T00:43:35;3.75;;;3.08;;
35496;SDS011;21609;49.298;6.844;2024-01-10T00:48:28;3.25;;;2.90;;
35496;SDS011;21609;49.298;6.844;2024-01-10T00:50:57;3.50;;;3.17;;
35496;SDS011;21609;49.298;6.844;2024-01-10T00:53:23;3.42;;;3.13;;
35496;SDS011;21609;49.298;6.844;2024-01-10T00:55:48;4.72;;;3.25;;
35496;SDS011;21609;49.298;6.844;2024-01-10T00:58:14;4.18;;;3.72;;
35496;SDS011;21609;49.298;6.844;2024-01-10T01:00:40;4.15;;;3.10;;
35496;SDS011;21609;49.298;6.844;2024-01-10T01:03:06;3.13;;;2.83;;
35496;SDS011;21609;49.298;6.844;2024-01-10T01:05:31;3.40;;;3.10;;
35496;SDS011;21609;49.298;6.844;2024-01-10T01:07:59;3.85;;;3.15;;
35496;SDS011;21609;49.298;6.844;2024-01-10T01:10:25;4.22;;;2.95;;
35496;SDS011;21609;49.298;6.844;2024-01-10T01:12:50;3.47;;;2.95;;
35496;SDS011;21609;49.298;6.844;2024-01-10T01:15:16;4.13;;;3.10;;
35496;SDS011;21609;49.298;6.844;2024-01-10T01:17:41;3.88;;;3.42;;
35496;SDS011;21609;49.298;6.844;2024-01-10T01:20:09;4.97;;;2.63;;
35496;SDS011;21609;49.298;6.844;2024-01-10T01:22:35;4.75;;;3.13;;
35496;SDS011;21609;49.298;6.844;2024-01-10T01:25:00;5.57;;;3.53;;
35496;SDS011;21609;49.298;6.844;2024-01-10T01:27:26;5.85;;;3.47;;
35496;SDS011;21609;49.298;6.844;2024-01-10T01:29:54;5.50;;;3.33;;
35496;SDS011;21609;49.298;6.844;2024-01-10T01:32:20;5.60;;;3.20;;
35496;SDS011;21609;49.298;6.844;2024-01-10T01:34:45;4.03;;;3.38;;
35496;SDS011;21609;49.298;6.844;2024-01-10T01:37:11;4.85;;;3.20;;
35496;SDS011;21609;49.298;6.844;2024-01-10T01:39:36;5.18;;;3.58;;
35496;SDS011;21609;49.298;6.844;2024-01-10T01:42:02;5.03;;;3.53;;
35496;SDS011;21609;49.298;6.844;2024-01-10T01:44:28;7.60;;;3.63;;
35496;SDS011;21609;49.298;6.844;2024-01-10T01:46:54;5.70;;;2.92;;
35496;SDS011;21609;49.298;6.844;2024-01-10T01:49:20;7.80;;;3.50;;
35496;SDS011;21609;49.298;6.844;2024-01-10T01:51:45;7.07;;;3.45;;
35496;SDS011;21609;49.298;6.844;2024-01-10T01:54:15;6.80;;;3.40;;
35496;SDS011;21609;49.298;6.844;2024-01-10T01:56:40;4.15;;;3.30;;
35496;SDS011;21609;49.298;6.844;2024-01-10T01:59:09;8.60;;;3.75;;
35496;SDS011;21609;49.298;6.844;2024-01-10T02:01:35;4.90;;;3.00;;
35496;SDS011;21609;49.298;6.844;2024-01-10T02:04:01;4.68;;;2.83;;
35496;SDS011;21609;49.298;6.844;2024-01-10T02:06:28;8.13;;;2.95;;
35496;SDS011;21609;49.298;6.844;2024-01-10T02:08:57;4.20;;;2.70;;
35496;SDS011;21609;49.298;6.844;2024-01-10T02:11:23;4.15;;;3.47;;
35496;SDS011;21609;49.298;6.844;2024-01-10T02:13:49;4.38;;;3.30;;
35496;SDS011;21609;49.298;6.844;2024-01-10T02:16:16;2.95;;;2.53;;
35496;SDS011;21609;49.298;6.844;2024-01-10T02:18:42;4.35;;;3.03;;
35496;SDS011;21609;49.298;6.844;2024-01-10T02:21:08;5.00;;;2.92;;
35496;SDS011;21609;49.298;6.844;2024-01-10T02:23:33;3.75;;;3.08;;
35496;SDS011;21609;49.298;6.844;2024-01-10T02:25:59;4.85;;;3.25;;
35496;SDS011;21609;49.298;6.844;2024-01-10T02:28:24;3.33;;;3.03;;
35496;SDS011;21609;49.298;6.844;2024-01-10T02:30:51;4.47;;;3.30;;
35496;SDS011;21609;49.298;6.844;2024-01-10T02:33:17;4.25;;;3.17;;
35496;SDS011;21609;49.298;6.844;2024-01-10T02:35:43;4.18;;;2.90;;
35496;SDS011;21609;49.298;6.844;2024-01-10T02:38:08;4.97;;;3.17;;
35496;SDS011;21609;49.298;6.844;2024-01-10T02:40:34;4.38;;;3.30;;
35496;SDS011;21609;49.298;6.844;2024-01-10T02:42:59;4.88;;;3.55;;
35496;SDS011;21609;49.298;6.844;2024-01-10T02:45:25;3.55;;;3.00;;
35496;SDS011;21609;49.298;6.844;2024-01-10T02:47:50;5.53;;;3.58;;
35496;SDS011;21609;49.298;6.844;2024-01-10T02:50:16;3.28;;;2.78;;
35496;SDS011;21609;49.298;6.844;2024-01-10T02:52:42;4.13;;;3.38;;
35496;SDS011;21609;49.298;6.844;2024-01-10T02:55:08;5.38;;;3.15;;
35496;SDS011;21609;49.298;6.844;2024-01-10T02:57:33;4.90;;;3.08;;
35496;SDS011;21609;49.298;6.844;2024-01-10T02:59:59;3.38;;;3.08;;
35496;SDS011;21609;49.298;6.844;2024-01-10T03:02:24;5.43;;;3.17;;
35496;SDS011;21609;49.298;6.844;2024-01-10T03:04:50;3.92;;;3.38;;
35496;SDS011;21609;49.298;6.844;2024-01-10T03:07:15;5.18;;;3.35;;
35496;SDS011;21609;49.298;6.844;2024-01-10T03:09:41;5.05;;;2.97;;
35496;SDS011;21609;49.298;6.844;2024-01-10T03:12:07;2.95;;;2.60;;
35496;SDS011;21609;49.298;6.844;2024-01-10T03:14:34;3.95;;;3.25;;
35496;SDS011;21609;49.298;6.844;2024-01-10T03:16:59;4.30;;;3.45;;
35496;SDS011;21609;49.298;6.844;2024-01-10T03:19:25;4.40;;;3.60;;
35496;SDS011;21609;49.298;6.844;2024-01-10T03:21:50;3.60;;;2.97;;
35496;SDS011;21609;49.298;6.844;2024-01-10T03:24:16;3.95;;;3.03;;
35496;SDS011;21609;49.298;6.844;2024-01-10T03:26:42;4.13;;;3.47;;
35496;SDS011;21609;49.298;6.844;2024-01-10T03:29:07;3.72;;;2.88;;
35496;SDS011;21609;49.298;6.844;2024-01-10T03:31:33;5.07;;;3.15;;
35496;SDS011;21609;49.298;6.844;2024-01-10T03:33:58;3.67;;;2.95;;
35496;SDS011;21609;49.298;6.844;2024-01-10T03:36:24;3.13;;;2.85;;
35496;SDS011;21609;49.298;6.844;2024-01-10T03:38:50;4.43;;;3.45;;
35496;SDS011;21609;49.298;6.844;2024-01-10T03:41:16;3.38;;;2.95;;
35496;SDS011;21609;49.298;6.844;2024-01-10T03:43:43;4.78;;;3.10;;
35496;SDS011;21609;49.298;6.844;2024-01-10T03:46:09;4.60;;;3.58;;
35496;SDS011;21609;49.298;6.844;2024-01-10T03:48:35;3.55;;;2.88;;
35496;SDS011;21609;49.298;6.844;2024-01-10T03:51:00;4.60;;;3.00;;
35496;SDS011;21609;49.298;6.844;2024-01-10T03:53:26;4.40;;;3.90;;
35496;SDS011;21609;49.298;6.844;2024-01-10T03:55:52;5.65;;;3.55;;
35496;SDS011;21609;49.298;6.844;2024-01-10T03:58:17;3.65;;;3.13;;
35496;SDS011;21609;49.298;6.844;2024-01-10T04:00:43;3.65;;;3.05;;
35496;SDS011;21609;49.298;6.844;2024-01-10T04:03:09;4.05;;;3.15;;
35496;SDS011;21609;49.298;6.844;2024-01-10T04:05:34;3.72;;;2.80;;
35496;SDS011;21609;49.298;6.844;2024-01-10T04:08:00;4.68;;;3.28;;
35496;SDS011;21609;49.298;6.844;2024-01-10T04:10:25;3.90;;;3.10;;
35496;SDS011;21609;49.298;6.844;2024-01-10T04:12:51;4.22;;;3.10;;
35496;SDS011;21609;49.298;6.844;2024-01-10T04:15:16;3.75;;;3.03;;
35496;SDS011;21609;49.298;6.844;2024-01-10T04:17:45;3.95;;;3.15;;
35496;SDS011;21609;49.298;6.844;2024-01-10T04:20:10;4.10;;;3.70;;
35496;SDS011;21609;49.298;6.844;2024-01-10T04:22:36;3.78;;;3.20;;
35496;SDS011;21609;49.298;6.844;2024-01-10T04:25:05;4.07;;;3.63;;
35496;SDS011;21609;49.298;6.844;2024-01-10T04:27:32;8.13;;;3.40;;
35496;SDS011;21609;49.298;6.844;2024-01-10T04:29:57;4.65;;;3.22;;
35496;SDS011;21609;49.298;6.844;2024-01-10T04:32:23;3.95;;;3.55;;
35496;SDS011;21609;49.298;6.844;2024-01-10T04:34:49;4.30;;;3.38;;
35496;SDS011;21609;49.298;6.844;2024-01-10T04:37:15;4.95;;;3.42;;
35496;SDS011;21609;49.298;6.844;2024-01-10T04:39:40;3.72;;;3.10;;
35496;SDS011;21609;49.298;6.844;2024-01-10T04:42:07;3.80;;;3.35;;
35496;SDS011;21609;49.298;6.844;2024-01-10T04:44:33;4.45;;;3.25;;
35496;SDS011;21609;49.298;6.844;2024-01-10T04:46:59;4.45;;;3.25;;
35496;SDS011;21609;49.298;6.844;2024-01-10T04:49:25;5.05;;;3.15;;
35496;SDS011;21609;49.298;6.844;2024-01-10T04:51:50;4.75;;;2.92;;
35496;SDS011;21609;49.298;6.844;2024-01-10T04:54:16;4.40;;;3.65;;
35496;SDS011;21609;49.298;6.844;2024-01-10T04:56:42;4.47;;;3.47;;
35496;SDS011;21609;49.298;6.844;2024-01-10T04:59:07;5.13;;;3.78;;
35496;SDS011;21609;49.298;6.844;2024-01-10T05:01:33;4.70;;;3.50;;
35496;SDS011;21609;49.298;6.844;2024-01-10T05:03:59;3.35;;;3.05;;
35496;SDS011;21609;49.298;6.844;2024-01-10T05:06:24;4.25;;;3.30;;
35496;SDS011;21609;49.298;6.844;2024-01-10T05:08:50;4.20;;;3.00;;
35496;SDS011;21609;49.298;6.844;2024-01-10T05:11:15;3.47;;;2.70;;
35496;SDS011;21609;49.298;6.844;2024-01-10T05:13:42;4.70;;;2.95;;
35496;SDS011;21609;49.298;6.844;2024-01-10T05:16:08;3.58;;;3.20;;
35496;SDS011;21609;49.298;6.844;2024-01-10T05:18:34;5.65;;;3.78;;
35496;SDS011;21609;49.298;6.844;2024-01-10T05:21:00;4.10;;;3.40;;
35496;SDS011;21609;49.298;6.844;2024-01-10T05:23:26;4.68;;;3.55;;
35496;SDS011;21609;49.298;6.844;2024-01-10T05:25:51;5.22;;;3.83;;
35496;SDS011;21609;49.298;6.844;2024-01-10T05:28:18;4.45;;;3.80;;
35496;SDS011;21609;49.298;6.844;2024-01-10T05:30:44;4.03;;;3.40;;
35496;SDS011;21609;49.298;6.844;2024-01-10T05:33:09;4.63;;;3.75;;
35496;SDS011;21609;49.298;6.844;2024-01-10T05:35:35;5.35;;;3.70;;
35496;SDS011;21609;49.298;6.844;2024-01-10T05:38:02;3.28;;;2.97;;
35496;SDS011;21609;49.298;6.844;2024-01-10T05:40:27;4.53;;;3.70;;
35496;SDS011;21609;49.298;6.844;2024-01-10T05:42:57;4.28;;;3.83;;
35496;SDS011;21609;49.298;6.844;2024-01-10T05:45:26;4.55;;;3.60;;
35496;SDS011;21609;49.298;6.844;2024-01-10T05:47:52;4.68;;;3.40;;
35496;SDS011;21609;49.298;6.844;2024-01-10T05:50:17;4.43;;;3.53;;
35496;SDS011;21609;49.298;6.844;2024-01-10T05:52:43;3.70;;;3.28;;
35496;SDS011;21609;49.298;6.844;2024-01-10T05:55:09;4.57;;;3.60;;
35496;SDS011;21609;49.298;6.844;2024-01-10T05:57:35;4.43;;;3.25;;
35496;SDS011;21609;49.298;6.844;2024-01-10T06:00:04;5.60;;;3.50;;
35496;SDS011;21609;49.298;6.844;2024-01-10T06:05:04;3.53;;;3.15;;
35496;SDS011;21609;49.298;6.844;2024-01-10T06:07:36;4.57;;;3.67;;
35496;SDS011;21609;49.298;6.844;2024-01-10T06:10:02;4.47;;;3.95;;
35496;SDS011;21609;49.298;6.844;2024-01-10T06:12:29;4.93;;;3.17;;
35496;SDS011;21609;49.298;6.844;2024-01-10T06:14:55;4.80;;;4.03;;
35496;SDS011;21609;49.298;6.844;2024-01-10T06:17:21;4.80;;;3.83;;
35496;SDS011;21609;49.298;6.844;2024-01-10T06:19:46;4.53;;;3.40;;
35496;SDS011;21609;49.298;6.844;2024-01-10T06:22:12;5.00;;;3.95;;
35496;SDS011;21609;49.298;6.844;2024-01-10T06:24:38;4.90;;;3.70;;
35496;SDS011;21609;49.298;6.844;2024-01-10T06:27:03;3.95;;;3.55;;
35496;SDS011;21609;49.298;6.844;2024-01-10T06:29:30;3.67;;;2.90;;
35496;SDS011;21609;49.298;6.844;2024-01-10T06:31:56;5.85;;;4.20;;
35496;SDS011;21609;49.298;6.844;2024-01-10T06:34:22;5.07;;;3.70;;
35496;SDS011;21609;49.298;6.844;2024-01-10T06:36:48;5.88;;;4.20;;
35496;SDS011;21609;49.298;6.844;2024-01-10T06:39:14;4.10;;;3.47;;
35496;SDS011;21609;49.298;6.844;2024-01-10T06:44:13;4.40;;;3.58;;
35496;SDS011;21609;49.298;6.844;2024-01-10T06:46:39;3.85;;;3.42;;
35496;SDS011;21609;49.298;6.844;2024-01-10T06:49:05;4.70;;;3.97;;
35496;SDS011;21609;49.298;6.844;2024-01-10T06:51:32;4.60;;;3.80;;
35496;SDS011;21609;49.298;6.844;2024-01-10T06:53:58;5.13;;;4.15;;
35496;SDS011;21609;49.298;6.844;2024-01-10T06:56:28;5.05;;;4.07;;
35496;SDS011;21609;49.298;6.844;2024-01-10T06:58:54;4.43;;;3.45;;
35496;SDS011;21609;49.298;6.844;2024-01-10T07:01:20;4.55;;;3.42;;
35496;SDS011;21609;49.298;6.844;2024-01-10T07:03:47;4.57;;;3.65;;
35496;SDS011;21609;49.298;6.844;2024-01-10T07:06:12;3.50;;;3.20;;
35496;SDS011;21609;49.298;6.844;2024-01-10T07:08:39;4.97;;;3.40;;
35496;SDS011;21609;49.298;6.844;2024-01-10T07:11:07;6.32;;;3.92;;
35496;SDS011;21609;49.298;6.844;2024-01-10T07:13:33;4.13;;;3.47;;
35496;SDS011;21609;49.298;6.844;2024-01-10T07:15:58;5.05;;;4.18;;
35496;SDS011;21609;49.298;6.844;2024-01-10T07:18:27;4.60;;;3.67;;
35496;SDS011;21609;49.298;6.844;2024-01-10T07:20:58;5.80;;;4.60;;
35496;SDS011;21609;49.298;6.844;2024-01-10T07:23:24;5.72;;;4.50;;
35496;SDS011;21609;49.298;6.844;2024-01-10T07:25:50;4.72;;;3.35;;
35496;SDS011;21609;49.298;6.844;2024-01-10T07:28:16;5.75;;;3.95;;
35496;SDS011;21609;49.298;6.844;2024-01-10T07:30:42;8.25;;;6.80;;
35496;SDS011;21609;49.298;6.844;2024-01-10T07:33:09;6.57;;;4.75;;
35496;SDS011;21609;49.298;6.844;2024-01-10T07:35:35;13.07;;;8.00;;
35496;SDS011;21609;49.298;6.844;2024-01-10T07:38:01;11.25;;;6.07;;
35496;SDS011;21609;49.298;6.844;2024-01-10T07:40:26;10.40;;;6.47;;
35496;SDS011;21609;49.298;6.844;2024-01-10T07:42:52;8.57;;;5.95;;
35496;SDS011;21609;49.298;6.844;2024-01-10T07:45:17;6.28;;;5.68;;
35496;SDS011;21609;49.298;6.844;2024-01-10T07:47:43;7.03;;;5.45;;
35496;SDS011;21609;49.298;6.844;2024-01-10T07:50:09;7.15;;;5.07;;
35496;SDS011;21609;49.298;6.844;2024-01-10T07:52:39;5.55;;;4.53;;
35496;SDS011;21609;49.298;6.844;2024-01-10T07:55:05;6.05;;;5.45;;
35496;SDS011;21609;49.298;6.844;2024-01-10T07:57:31;6.60;;;4.93;;
35496;SDS011;21609;49.298;6.844;2024-01-10T08:00:02;6.65;;;5.13;;
35496;SDS011;21609;49.298;6.844;2024-01-10T08:02:29;6.93;;;5.45;;
35496;SDS011;21609;49.298;6.844;2024-01-10T08:04:58;5.30;;;4.35;;
35496;SDS011;21609;49.298;6.844;2024-01-10T08:07:33;6.57;;;4.72;;
35496;SDS011;21609;49.298;6.844;2024-01-10T08:09:59;6.53;;;4.75;;
35496;SDS011;21609;49.298;6.844;2024-01-10T08:12:25;6.40;;;4.97;;
35496;SDS011;21609;49.298;6.844;2024-01-10T08:14:50;11.70;;;5.30;;
35496;SDS011;21609;49.298;6.844;2024-01-10T08:17:16;5.40;;;4.50;;
35496;SDS011;21609;49.298;6.844;2024-01-10T08:19:42;6.18;;;5.53;;
35496;SDS011;21609;49.298;6.844;2024-01-10T08:22:08;6.88;;;4.55;;
35496;SDS011;21609;49.298;6.844;2024-01-10T08:24:33;5.32;;;4.75;;
35496;SDS011;21609;49.298;6.844;2024-01-10T08:26:59;5.57;;;4.43;;
35496;SDS011;21609;49.298;6.844;2024-01-10T08:29:24;6.38;;;4.63;;
35496;SDS011;21609;49.298;6.844;2024-01-10T08:31:55;6.32;;;3.55;;
35496;SDS011;21609;49.298;6.844;2024-01-10T08:34:21;9.15;;;4.90;;
35496;SDS011;21609;49.298;6.844;2024-01-10T08:36:47;6.13;;;4.75;;
35496;SDS011;21609;49.298;6.844;2024-01-10T08:39:15;5.78;;;5.03;;
35496;SDS011;21609;49.298;6.844;2024-01-10T08:41:41;6.43;;;5.10;;
35496;SDS011;21609;49.298;6.844;2024-01-10T08:44:09;6.43;;;5.40;;
35496;SDS011;21609;49.298;6.844;2024-01-10T08:46:35;7.75;;;5.00;;
35496;SDS011;21609;49.298;6.844;2024-01-10T08:49:00;6.80;;;4.68;;
35496;SDS011;21609;49.298;6.844;2024-01-10T08:51:26;6.57;;;5.07;;
35496;SDS011;21609;49.298;6.844;2024-01-10T08:53:52;9.07;;;5.60;;
35496;SDS011;21609;49.298;6.844;2024-01-10T08:56:17;6.43;;;4.80;;
35496;SDS011;21609;49.298;6.844;2024-01-10T08:58:44;5.63;;;4.75;;
35496;SDS011;21609;49.298;6.844;2024-01-10T09:01:10;6.75;;;4.95;;
35496;SDS011;21609;49.298;6.844;2024-01-10T09:03:36;6.13;;;4.72;;
35496;SDS011;21609;49.298;6.844;2024-01-10T09:06:02;6.85;;;5.25;;
35496;SDS011;21609;49.298;6.844;2024-01-10T09:08:29;6.13;;;5.13;;
35496;SDS011;21609;49.298;6.844;2024-01-10T09:10:55;6.95;;;4.78;;
35496;SDS011;21609;49.298;6.844;2024-01-10T09:13:20;5.20;;;4.70;;
35496;SDS011;21609;49.298;6.844;2024-01-10T09:15:46;7.18;;;4.90;;
35496;SDS011;21609;49.298;6.844;2024-01-10T09:18:11;6.53;;;5.47;;
35496;SDS011;21609;49.298;6.844;2024-01-10T09:20:37;7.22;;;5.57;;
35496;SDS011;21609;49.298;6.844;2024-01-10T09:23:03;7.25;;;5.28;;
35496;SDS011;21609;49.298;6.844;2024-01-10T09:25:29;8.95;;;4.93;;
35496;SDS011;21609;49.298;6.844;2024-01-10T09:27:54;5.72;;;5.00;;
35496;SDS011;21609;49.298;6.844;2024-01-10T09:30:20;10.63;;;5.97;;
35496;SDS011;21609;49.298;6.844;2024-01-10T09:32:46;6.68;;;5.78;;
35496;SDS011;21609;49.298;6.844;2024-01-10T09:35:12;8.38;;;5.35;;
35496;SDS011;21609;49.298;6.844;2024-01-10T09:37:38;5.78;;;5.15;;
35496;SDS011;21609;49.298;6.844;2024-01-10T09:40:04;8.15;;;5.07;;
35496;SDS011;21609;49.298;6.844;2024-01-10T09:42:34;5.33;;;4.83;;
35496;SDS011;21609;49.298;6.844;2024-01-10T09:45:01;5.97;;;5.18;;
35496;SDS011;21609;49.298;6.844;2024-01-10T09:47:30;6.75;;;5.07;;
35496;SDS011;21609;49.298;6.844;2024-01-10T09:49:57;6.65;;;5.10;;
35496;SDS011;21609;49.298;6.844;2024-01-10T09:52:29;9.20;;;5.95;;
35496;SDS011;21609;49.298;6.844;2024-01-10T09:55:03;6.10;;;5.50;;
35496;SDS011;21609;49.298;6.844;2024-01-10T09:57:29;6.90;;;5.35;;
35496;SDS011;21609;49.298;6.844;2024-01-10T09:59:58;6.65;;;5.78;;
35496;SDS011;21609;49.298;6.844;2024-01-10T10:02:24;6.22;;;5.10;;
35496;SDS011;21609;49.298;6.844;2024-01-10T10:04:53;8.65;;;6.05;;
35496;SDS011;21609;49.298;6.844;2024-01-10T10:07:29;7.20;;;6.05;;
35496;SDS011;21609;49.298;6.844;2024-01-10T10:09:54;6.90;;;5.03;;
35496;SDS011;21609;49.298;6.844;2024-01-10T10:12:28;8.82;;;5.63;;
35496;SDS011;21609;49.298;6.844;2024-01-10T10:15:10;6.25;;;5.30;;
35496;SDS011;21609;49.298;6.844;2024-01-10T10:17:39;6.57;;;5.32;;
35496;SDS011;21609;49.298;6.844;2024-01-10T10:20:11;6.28;;;4.72;;
35496;SDS011;21609;49.298;6.844;2024-01-10T10:22:40;6.82;;;5.45;;
35496;SDS011;21609;49.298;6.844;2024-01-10T10:25:31;6.00;;;5.10;;
35496;SDS011;21609;49.298;6.844;2024-01-10T10:27:57;6.47;;;5.80;;
35496;SDS011;21609;49.298;6.844;2024-01-10T10:30:24;6.53;;;5.68;;
35496;SDS011;21609;49.298;6.844;2024-01-10T10:32:50;5.65;;;5.05;;
35496;SDS011;21609;49.298;6.844;2024-01-10T10:35:18;6.15;;;5.53;;
35496;SDS011;21609;49.298;6.844;2024-01-10T10:37:48;8.75;;;6.18;;
35496;SDS011;21609;49.298;6.844;2024-01-10T10:40:15;6.80;;;5.57;;
35496;SDS011;21609;49.298;6.844;2024-01-10T10:42:43;6.55;;;5.85;;
35496;SDS011;21609;49.298;6.844;2024-01-10T10:45:15;6.43;;;5.22;;
35496;SDS011;21609;49.298;6.844;2024-01-10T10:47:50;5.45;;;4.85;;
35496;SDS011;21609;49.298;6.844;2024-01-10T10:50:24;7.75;;;5.97;;
35496;SDS011;21609;49.298;6.844;2024-01-10T10:52:58;6.57;;;5.03;;
35496;SDS011;21609;49.298;6.844;2024-01-10T10:55:27;7.45;;;5.63;;
35496;SDS011;21609;49.298;6.844;2024-01-10T10:57:54;5.72;;;4.53;;
35496;SDS011;21609;49.298;6.844;2024-01-10T11:00:23;5.80;;;5.15;;
35496;SDS011;21609;49.298;6.844;2024-01-10T11:02:52;5.95;;;4.78;;
35496;SDS011;21609;49.298;6.844;2024-01-10T11:05:22;5.28;;;4.78;;
35496;SDS011;21609;49.298;6.844;2024-01-10T11:07:49;6.72;;;5.60;;
35496;SDS011;21609;49.298;6.844;2024-01-10T11:10:18;4.95;;;4.45;;
35496;SDS011;21609;49.298;6.844;2024-01-10T11:12:59;6.05;;;4.40;;
35496;SDS011;21609;49.298;6.844;2024-01-10T11:21:49;6.10;;;4.85;;
35496;SDS011;21609;49.298;6.844;2024-01-10T11:24:29;5.60;;;4.55;;
35496;SDS011;21609;49.298;6.844;2024-01-10T11:27:12;4.90;;;4.43;;
35496;SDS011;21609;49.298;6.844;2024-01-10T11:29:39;4.80;;;4.35;;
35496;SDS011;21609;49.298;6.844;2024-01-10T11:32:06;4.88;;;4.47;;
35496;SDS011;21609;49.298;6.844;2024-01-10T11:34:34;4.80;;;4.32;;
35496;SDS011;21609;49.298;6.844;2024-01-10T11:37:09;5.07;;;4.57;;
35496;SDS011;21609;49.298;6.844;2024-01-10T11:39:36;5.43;;;4.68;;
35496;SDS011;21609;49.298;6.844;2024-01-10T11:42:05;5.15;;;4.45;;
35496;SDS011;21609;49.298;6.844;2024-01-10T11:44:34;5.95;;;4.88;;
35496;SDS011;21609;49.298;6.844;2024-01-10T11:47:11;4.90;;;4.40;;
35496;SDS011;21609;49.298;6.844;2024-01-10T11:49:39;6.35;;;4.53;;
35496;SDS011;21609;49.298;6.844;2024-01-10T11:52:05;8.00;;;4.75;;
35496;SDS011;21609;49.298;6.844;2024-01-10T11:57:22;8.23;;;5.25;;
35496;SDS011;21609;49.298;6.844;2024-01-10T11:59:52;19.90;;;5.30;;
35496;SDS011;21609;49.298;6.844;2024-01-10T12:02:19;11.90;;;4.93;;
35496;SDS011;21609;49.298;6.844;2024-01-10T12:04:47;5.10;;;4.25;;
35496;SDS011;21609;49.298;6.844;2024-01-10T12:07:13;5.30;;;4.47;;
35496;SDS011;21609;49.298;6.844;2024-01-10T12:09:39;5.43;;;4.82;;
35496;SDS011;21609;49.298;6.844;2024-01-10T12:12:06;6.53;;;4.50;;
35496;SDS011;21609;49.298;6.844;2024-01-10T12:14:33;8.93;;;4.45;;
35496;SDS011;21609;49.298;6.844;2024-01-10T12:16:59;5.25;;;4.70;;
35496;SDS011;21609;49.298;6.844;2024-01-10T12:19:25;6.25;;;5.03;;
35496;SDS011;21609;49.298;6.844;2024-01-10T12:21:51;5.13;;;3.95;;
35496;SDS011;21609;49.298;6.844;2024-01-10T12:24:17;9.43;;;5.28;;
35496;SDS011;21609;49.298;6.844;2024-01-10T12:26:46;7.70;;;5.38;;
35496;SDS011;21609;49.298;6.844;2024-01-10T12:29:12;6.15;;;5.00;;
35496;SDS011;21609;49.298;6.844;2024-01-10T12:31:41;9.02;;;5.00;;
35496;SDS011;21609;49.298;6.844;2024-01-10T12:34:09;5.18;;;4.68;;
35496;SDS011;21609;49.298;6.844;2024-01-10T12:36:35;5.57;;;4.57;;
35496;SDS011;21609;49.298;6.844;2024-01-10T12:39:03;9.30;;;4.53;;
35496;SDS011;21609;49.298;6.844;2024-01-10T12:41:31;5.43;;;4.93;;
35496;SDS011;21609;49.298;6.844;2024-01-10T12:43:58;7.95;;;4.47;;
35496;SDS011;21609;49.298;6.844;2024-01-10T12:46:27;6.97;;;4.93;;
35496;SDS011;21609;49.298;6.844;2024-01-10T12:49:00;4.72;;;4.22;;
35496;SDS011;21609;49.298;6.844;2024-01-10T12:51:32;4.85;;;4.40;;
35496;SDS011;21609;49.298;6.844;2024-01-10T12:53:59;5.13;;;4.63;;
35496;SDS011;21609;49.298;6.844;2024-01-10T12:56:25;5.65;;;4.57;;
35496;SDS011;21609;49.298;6.844;2024-01-10T12:58:52;4.78;;;4.28;;
35496;SDS011;21609;49.298;6.844;2024-01-10T13:01:17;6.00;;;5.30;;
35496;SDS011;21609;49.298;6.844;2024-01-10T13:03:43;5.82;;;4.47;;
35496;SDS011;21609;49.298;6.844;2024-01-10T13:06:09;5.05;;;4.55;;
35496;SDS011;21609;49.298;6.844;2024-01-10T13:08:35;5.32;;;4.82;;
35496;SDS011;21609;49.298;6.844;2024-01-10T13:11:01;6.72;;;5.15;;
35496;SDS011;21609;49.298;6.844;2024-01-10T13:13:33;5.07;;;4.53;;
35496;SDS011;21609;49.298;6.844;2024-01-10T13:15:58;5.07;;;4.65;;
35496;SDS011;21609;49.298;6.844;2024-01-10T13:18:25;5.10;;;4.70;;
35496;SDS011;21609;49.298;6.844;2024-01-10T13:20:53;5.22;;;4.63;;
35496;SDS011;21609;49.298;6.844;2024-01-10T13:23:19;6.82;;;5.05;;
35496;SDS011;21609;49.298;6.844;2024-01-10T13:25:47;4.63;;;4.22;;
35496;SDS011;21609;49.298;6.844;2024-01-10T13:28:13;4.75;;;4.35;;
35496;SDS011;21609;49.298;6.844;2024-01-10T13:30:39;4.72;;;4.25;;
35496;SDS011;21609;49.298;6.844;2024-01-10T13:33:08;5.10;;;4.60;;
35496;SDS011;21609;49.298;6.844;2024-01-10T13:35:34;5.63;;;5.03;;
35496;SDS011;21609;49.298;6.844;2024-01-10T13:38:00;5.93;;;5.40;;
35496;SDS011;21609;49.298;6.844;2024-01-10T13:40:26;5.72;;;4.95;;
35496;SDS011;21609;49.298;6.844;2024-01-10T13:42:52;6.30;;;5.00;;
35496;SDS011;21609;49.298;6.844;2024-01-10T13:45:18;5.13;;;4.63;;
35496;SDS011;21609;49.298;6.844;2024-01-10T13:47:44;5.63;;;5.00;;
35496;SDS011;21609;49.298;6.844;2024-01-10T13:50:09;7.90;;;4.47;;
35496;SDS011;21609;49.298;6.844;2024-01-10T13:52:35;5.53;;;4.80;;
35496;SDS011;21609;49.298;6.844;2024-01-10T13:55:01;6.72;;;5.78;;
35496;SDS011;21609;49.298;6.844;2024-01-10T13:57:31;7.40;;;4.80;;
35496;SDS011;21609;49.298;6.844;2024-01-10T13:59:59;5.03;;;4.50;;
35496;SDS011;21609;49.298;6.844;2024-01-10T14:02:25;5.65;;;4.93;;
35496;SDS011;21609;49.298;6.844;2024-01-10T14:04:51;5.60;;;4.72;;
35496;SDS011;21609;49.298;6.844;2024-01-10T14:07:19;5.40;;;4.90;;
35496;SDS011;21609;49.298;6.844;2024-01-10T14:09:45;6.15;;;4.80;;
35496;SDS011;21609;49.298;6.844;2024-01-10T14:12:11;5.88;;;5.30;;
35496;SDS011;21609;49.298;6.844;2024-01-10T14:14:37;5.28;;;4.70;;
35496;SDS011;21609;49.298;6.844;2024-01-10T14:17:03;6.38;;;4.95;;
35496;SDS011;21609;49.298;6.844;2024-01-10T14:19:29;5.30;;;4.85;;
35496;SDS011;21609;49.298;6.844;2024-01-10T14:21:55;4.70;;;4.30;;
35496;SDS011;21609;49.298;6.844;2024-01-10T14:24:20;5.53;;;4.93;;
35496;SDS011;21609;49.298;6.844;2024-01-10T14:26:46;6.03;;;5.22;;
35496;SDS011;21609;49.298;6.844;2024-01-10T14:29:12;7.90;;;6.53;;
35496;SDS011;21609;49.298;6.844;2024-01-10T14:31:37;5.15;;;4.68;;
35496;SDS011;21609;49.298;6.844;2024-01-10T14:34:04;5.60;;;5.00;;
35496;SDS011;21609;49.298;6.844;2024-01-10T14:36:30;4.90;;;4.50;;
35496;SDS011;21609;49.298;6.844;2024-01-10T14:38:56;7.43;;;6.30;;
35496;SDS011;21609;49.298;6.844;2024-01-10T14:41:21;5.32;;;4.82;;
35496;SDS011;21609;49.298;6.844;2024-01-10T14:43:47;6.22;;;5.63;;
35496;SDS011;21609;49.298;6.844;2024-01-10T14:46:13;5.57;;;5.07;;
35496;SDS011;21609;49.298;6.844;2024-01-10T14:48:38;6.88;;;6.18;;
35496;SDS011;21609;49.298;6.844;2024-01-10T14:51:04;6.13;;;5.63;;
35496;SDS011;21609;49.298;6.844;2024-01-10T14:53:30;7.93;;;5.85;;
35496;SDS011;21609;49.298;6.844;2024-01-10T14:55:55;5.20;;;4.55;;
35496;SDS011;21609;49.298;6.844;2024-01-10T14:58:21;9.48;;;6.90;;
35496;SDS011;21609;49.298;6.844;2024-01-10T15:00:47;5.53;;;5.00;;
35496;SDS011;21609;49.298;6.844;2024-01-10T15:03:13;8.27;;;6.28;;